Time;durP1;ratioP1;P1;durP2;ratioP2;P2;SDS_P1;SDS_P2;PMS_P1;PMS_P2;Temp;Humidity;BMP_temperature;BMP_pressure;BME280_temperature;BME280_humidity;BME280_pressure;Samples;Min_cycle;Max_cycle;Signal;HPM_P1;HPM_P2
2023/06/12 00:00:15;;;;;;;2.95;2.15;;;;;;;18.61;46.44;99679.44;7763999;32;40806;-81
2023/06/12 00:04:31;;;;;;;5.68;2.40;;;;;;;18.73;46.02;99674.03;7763388;32;38749;-82
2023/06/12 00:08:48;;;;;;;4.82;2.47;;;;;;;18.55;46.27;99676.03;7765388;32;37270;-81
2023/06/12 00:13:05;;;;;;;5.93;2.85;;;;;;;18.56;46.68;99665.81;7767210;32;39963;-81
2023/06/12 00:17:21;;;;;;;6.43;2.75;;;;;;;18.36;47.73;99659.81;7767065;32;40853;-81
2023/06/12 00:21:38;;;;;;;4.62;2.67;;;;;;;18.47;46.60;99657.53;7765673;32;38777;-81
2023/06/12 00:25:54;;;;;;;5.75;2.47;;;;;;;18.18;46.72;99661.00;7767018;32;37582;-81
2023/06/12 00:30:11;;;;;;;6.97;2.62;;;;;;;18.15;46.63;99651.41;7766288;32;39200;-81
2023/06/12 00:34:28;;;;;;;4.12;2.60;;;;;;;18.34;46.82;99653.81;7766795;32;40739;-81
2023/06/12 00:38:44;;;;;;;5.62;2.55;;;;;;;18.01;46.70;99657.09;7766729;32;38823;-81
2023/06/12 00:43:01;;;;;;;5.32;2.58;;;;;;;18.25;46.39;99644.75;7766710;32;37011;-81
2023/06/12 00:47:17;;;;;;;8.77;3.03;;;;;;;18.26;46.19;99646.34;7766743;32;39376;-80
2023/06/12 00:51:33;;;;;;;5.70;2.67;;;;;;;18.21;46.05;99643.75;7752683;32;40927;-80
2023/06/12 00:55:50;;;;;;;4.07;2.35;;;;;;;18.11;46.23;99639.41;7766534;32;37982;-81
2023/06/12 01:00:07;;;;;;;7.25;3.30;;;;;;;17.99;46.82;99640.06;7766590;32;37682;-80
2023/06/12 01:04:25;;;;;;;4.70;2.60;;;;;;;17.95;46.96;99647.34;7752519;32;39161;-80
2023/06/12 01:09:06;;;;;;;5.68;2.80;;;;;;;17.91;47.08;99640.88;7752286;32;40146;-81
2023/06/12 01:13:22;;;;;;;7.70;2.95;;;;;;;18.14;46.22;99632.41;7753978;32;37674;-80
2023/06/12 01:17:41;;;;;;;7.10;2.67;;;;;;;17.99;45.74;99626.28;7766406;32;37024;-80
2023/06/12 01:22:03;;;;;;;7.10;2.92;;;;;;;17.91;46.11;99626.28;7765086;32;41365;-79
2023/06/12 01:26:33;;;;;;;6.72;3.20;;;;;;;17.76;46.37;99633.06;7753135;32;40055;-81
2023/06/12 01:31:13;;;;;;;3.92;2.40;;;;;;;17.97;46.29;99620.28;7765895;32;37893;-80
2023/06/12 01:35:32;;;;;;;5.00;3.00;;;;;;;17.85;46.21;99631.12;7766171;32;37411;-81
2023/06/12 01:39:58;;;;;;;5.80;2.90;;;;;;;17.75;46.46;99626.75;7766203;32;40077;-82
2023/06/12 01:44:16;;;;;;;6.35;3.03;;;;;;;17.81;45.96;99619.09;7752968;32;39905;-81
2023/06/12 01:48:33;;;;;;;5.87;2.92;;;;;;;17.64;46.29;99626.25;7765826;32;37854;-82
2023/06/12 01:52:49;;;;;;;5.20;3.03;;;;;;;17.56;46.85;99617.97;7765539;32;37972;-82
2023/06/12 01:57:06;;;;;;;4.12;2.58;;;;;;;17.69;45.94;99616.19;7765870;32;39573;-83
2023/06/12 02:01:23;;;;;;;4.10;2.72;;;;;;;17.76;45.69;99624.78;7765695;32;41151;-81
2023/06/12 02:05:40;;;;;;;4.50;2.87;;;;;;;17.48;46.62;99621.53;7765783;32;38788;-81
2023/06/12 02:09:56;;;;;;;4.97;2.70;;;;;;;17.37;46.58;99623.78;7765684;32;36851;-83
2023/06/12 02:14:13;;;;;;;6.22;2.95;;;;;;;17.48;46.44;99622.31;7765649;32;40069;-82
2023/06/12 02:18:30;;;;;;;4.85;2.92;;;;;;;17.48;46.00;99624.28;7765547;32;39998;-81
2023/06/12 02:22:46;;;;;;;5.12;3.10;;;;;;;17.37;46.52;99627.34;7765551;32;37661;-82
2023/06/12 02:27:03;;;;;;;4.97;2.85;;;;;;;17.37;45.70;99619.06;7765597;32;37004;-82
2023/06/12 02:31:20;;;;;;;6.20;2.65;;;;;;;17.20;46.57;99622.59;7764776;32;39336;-82
2023/06/12 02:35:37;;;;;;;6.50;3.08;;;;;;;17.46;45.34;99624.59;7764931;32;39947;-82
2023/06/12 02:39:53;;;;;;;4.65;2.85;;;;;;;17.57;46.57;99623.12;7765278;32;37979;-82
2023/06/12 02:44:10;;;;;;;4.70;2.72;;;;;;;17.38;45.70;99639.16;7751449;32;36999;-82
2023/06/12 02:48:27;;;;;;;5.07;2.92;;;;;;;17.39;45.59;99635.28;7724596;32;39477;-82
2023/06/12 02:52:45;;;;;;;5.53;2.83;;;;;;;17.21;46.44;99638.00;7738261;32;39906;-81
2023/06/12 02:57:02;;;;;;;4.70;2.80;;;;;;;17.22;45.72;99633.31;7738114;32;38777;-81
2023/06/12 03:01:20;;;;;;;6.03;2.70;;;;;;;16.66;46.96;99643.87;7738297;32;38150;-81
2023/06/12 03:05:36;;;;;;;6.12;3.00;;;;;;;17.20;45.90;99639.12;7724634;32;42018;-81
2023/06/12 03:09:52;;;;;;;4.75;2.70;;;;;;;17.18;45.89;99644.16;7738118;32;40603;-81
2023/06/12 03:14:09;;;;;;;9.68;3.05;;;;;;;17.36;44.66;99644.19;7736771;32;38058;-81
2023/06/12 03:18:29;;;;;;;5.37;2.90;;;;;;;17.15;45.37;99646.72;7737956;32;37853;-81
2023/06/12 03:22:46;;;;;;;5.47;2.95;;;;;;;17.25;45.19;99647.25;7763525;32;39398;-81
2023/06/12 03:27:02;;;;;;;3.97;2.50;;;;;;;17.01;45.79;99655.12;7764715;32;40814;-81
2023/06/12 03:31:19;;;;;;;4.57;2.50;;;;;;;17.25;44.21;99651.94;7764467;32;37931;-81
2023/06/12 03:35:36;;;;;;;5.28;2.40;;;;;;;16.99;45.66;99652.66;7764674;32;37058;-81
2023/06/12 03:39:52;;;;;;;4.03;2.60;;;;;;;17.36;44.40;99646.94;7764428;32;39508;-81
2023/06/12 03:44:08;;;;;;;4.37;2.67;;;;;;;17.58;44.23;99651.53;7763246;32;40606;-81
2023/06/12 03:48:25;;;;;;;5.65;2.80;;;;;;;17.35;44.58;99648.06;7764152;32;38653;-81
2023/06/12 03:52:42;;;;;;;4.32;2.95;;;;;;;17.11;44.89;99645.72;7764210;32;38046;-81
2023/06/12 03:56:58;;;;;;;5.28;2.40;;;;;;;17.26;45.03;99643.37;7764203;32;40247;-81
2023/06/12 04:01:14;;;;;;;7.45;2.60;;;;;;;17.11;44.66;99652.06;7763987;32;39784;-81
2023/06/12 04:05:33;;;;;;;5.15;2.70;;;;;;;17.32;44.44;99651.50;7763873;32;37955;-81
2023/06/12 04:09:49;;;;;;;4.30;2.55;;;;;;;17.34;44.18;99632.69;7763503;32;38335;-81
2023/06/12 04:14:06;;;;;;;4.72;2.37;;;;;;;16.99;44.58;99632.56;7763721;32;39377;-80
2023/06/12 04:18:23;;;;;;;4.40;2.65;;;;;;;17.04;44.47;99627.75;7763559;32;39873;-81
2023/06/12 04:22:41;;;;;;;4.05;2.55;;;;;;;17.00;44.77;99631.44;7763038;32;37980;-82
2023/06/12 04:27:01;;;;;;;6.07;2.50;;;;;;;17.07;44.37;99629.88;7763427;32;38126;-81
2023/06/12 04:31:19;;;;;;;5.47;2.60;;;;;;;17.13;43.90;99633.28;7763183;32;39392;-81
2023/06/12 04:35:35;;;;;;;4.10;2.50;;;;;;;17.26;43.56;99637.03;7763106;32;40950;-80
2023/06/12 04:39:52;;;;;;;10.73;2.70;;;;;;;16.88;44.03;99632.88;7762924;32;37914;-81
2023/06/12 04:44:08;;;;;;;3.70;2.20;;;;;;;16.66;44.66;99638.38;7762972;32;36865;-81
2023/06/12 04:48:25;;;;;;;5.47;2.50;;;;;;;17.48;43.29;99644.38;7762482;32;40082;-81
2023/06/12 04:52:41;;;;;;;5.82;2.15;;;;;;;17.62;43.36;99652.50;7762736;32;40850;-81
2023/06/12 04:56:58;;;;;;;4.85;2.20;;;;;;;17.60;42.85;99641.78;7766220;32;38767;-82
2023/06/12 05:01:17;;;;;;;6.20;2.28;;;;;;;17.35;42.46;99653.56;7766633;32;36896;-81
2023/06/12 05:05:34;;;;;;;7.35;2.30;;;;;;;17.91;42.08;99662.12;7766419;32;40112;-81
2023/06/12 05:09:50;;;;;;;4.15;2.47;;;;;;;17.70;41.89;99670.19;7766434;32;41362;-82
2023/06/12 05:14:07;;;;;;;4.28;2.80;;;;;;;18.18;41.86;99683.06;7765242;32;38610;-81
2023/06/12 05:18:23;;;;;;;8.75;2.75;;;;;;;17.68;42.21;99678.78;7766334;32;37849;-81
2023/06/12 05:22:40;;;;;;;3.50;2.10;;;;;;;18.13;40.84;99669.44;7766310;32;40070;-81
2023/06/12 05:26:56;;;;;;;3.17;2.15;;;;;;;17.57;40.37;99678.25;7766259;32;39677;-82
2023/06/12 05:31:14;;;;;;;4.20;2.42;;;;;;;18.08;40.71;99675.13;7765985;32;38645;-82
2023/06/12 05:35:31;;;;;;;3.50;2.28;;;;;;;18.10;41.54;99687.44;7766169;32;36939;-82
2023/06/12 05:39:48;;;;;;;7.20;2.35;;;;;;;18.00;41.11;99683.03;7766107;32;39380;-81
2023/06/12 05:44:05;;;;;;;8.55;2.10;;;;;;;18.38;40.58;99689.84;7766002;32;39855;-81
2023/06/12 05:48:21;;;;;;;4.47;2.40;;;;;;;18.83;38.88;99689.47;7765523;32;38794;-81
2023/06/12 05:52:38;;;;;;;5.20;2.00;;;;;;;18.94;38.77;99690.72;7766241;32;38169;-81
2023/06/12 05:56:56;;;;;;;5.75;2.30;;;;;;;18.49;40.10;99693.06;7765905;32;40169;-81
2023/06/12 06:01:16;;;;;;;9.40;2.37;;;;;;;18.95;39.31;99689.59;7765837;32;40696;-81
2023/06/12 06:05:33;;;;;;;10.27;1.98;;;;;;;19.11;39.85;99692.62;7765004;32;37906;-82
2023/06/12 06:09:49;;;;;;;7.90;2.08;;;;;;;19.01;38.25;99698.50;7764241;32;37171;-73
2023/06/12 06:14:06;;;;;;;5.30;2.00;;;;;;;19.32;39.35;99697.41;7753825;32;39828;-74
2023/06/12 06:18:22;;;;;;;4.25;2.00;;;;;;;19.09;38.27;99694.91;7765596;32;39879;-73
2023/06/12 06:22:38;;;;;;;3.40;2.08;;;;;;;19.20;37.19;99689.03;7765190;32;37787;-74
2023/06/12 06:26:55;;;;;;;2.20;1.62;;;;;;;19.30;37.02;99689.44;7765640;32;36981;-72
2023/06/12 06:31:12;;;;;;;2.45;1.50;;;;;;;19.42;36.42;99688.75;7764899;32;39338;-72
2023/06/12 06:35:29;;;;;;;2.60;1.70;;;;;;;19.86;36.36;99688.47;7765242;32;39763;-73
2023/06/12 06:39:46;;;;;;;3.05;1.80;;;;;;;19.77;35.97;99685.78;7764822;32;38733;-75
2023/06/12 06:44:02;;;;;;;6.82;1.95;;;;;;;20.38;35.36;99688.03;7765217;32;37657;-77
2023/06/12 06:48:19;;;;;;;3.50;1.87;;;;;;;20.07;34.77;99682.94;7765155;32;39341;-76
2023/06/12 06:52:35;;;;;;;5.65;1.80;;;;;;;20.00;36.49;99688.22;7765772;32;39827;-77
2023/06/12 06:56:51;;;;;;;3.33;1.73;;;;;;;20.37;35.23;99680.91;7765015;32;38014;-73
2023/06/12 07:01:08;;;;;;;7.47;1.98;;;;;;;20.56;33.68;99679.59;7764423;32;37743;-73
2023/06/12 07:05:27;;;;;;;3.92;2.15;;;;;;;20.62;34.95;99686.53;7765009;32;39405;-75
2023/06/12 07:09:43;;;;;;;3.45;1.70;;;;;;;20.63;34.94;99685.41;7738002;32;40057;-86
2023/06/12 07:13:59;;;;;;;4.95;1.90;;;;;;;20.70;34.89;99676.53;7743348;32;38770;-80
2023/06/12 07:18:16;;;;;;;4.35;2.03;;;;;;;20.56;34.56;99672.06;7761267;32;37984;-82
2023/06/12 07:22:33;;;;;;;5.53;1.95;;;;;;;20.58;33.83;99675.31;7761349;32;39362;-85
2023/06/12 07:26:49;;;;;;;7.10;1.80;;;;;;;20.84;33.25;99674.25;7745956;32;40001;-79
2023/06/12 07:31:05;;;;;;;3.60;1.80;;;;;;;20.80;32.74;99684.41;7761455;32;37960;-80
2023/06/12 07:35:22;;;;;;;6.85;2.17;;;;;;;20.96;33.66;99668.72;7761676;32;37046;-82
2023/06/12 07:39:39;;;;;;;3.42;1.92;;;;;;;20.91;33.81;99671.72;7760864;32;39166;-80
2023/06/12 07:43:57;;;;;;;4.45;1.65;;;;;;;21.33;32.03;99677.03;7761477;32;41069;-81
2023/06/12 07:48:14;;;;;;;6.25;1.90;;;;;;;21.36;32.18;99667.22;7761216;32;37680;-80
2023/06/12 07:52:31;;;;;;;7.60;1.50;;;;;;;21.00;32.31;99674.38;7755942;32;36989;-79
2023/06/12 07:56:50;;;;;;;5.97;1.62;;;;;;;21.30;33.33;99672.22;7746717;32;39479;-78
2023/06/12 08:01:07;;;;;;;4.90;1.80;;;;;;;21.84;32.20;99667.56;7757598;32;39923;-79
2023/06/12 08:05:24;;;;;;;4.57;1.67;;;;;;;21.78;32.36;99664.19;7760476;32;38064;-78
2023/06/12 08:09:41;;;;;;;4.00;1.98;;;;;;;21.86;29.94;99666.03;7762749;32;36720;-81
2023/06/12 08:13:57;;;;;;;6.28;1.87;;;;;;;21.82;31.09;99670.66;7749526;32;40142;-80
2023/06/12 08:18:14;;;;;;;4.75;1.83;;;;;;;21.83;29.87;99677.03;7748655;32;39898;-81
2023/06/12 08:22:31;;;;;;;5.93;1.67;;;;;;;22.24;29.52;99680.59;7763268;32;38520;-80
2023/06/12 08:26:48;;;;;;;6.40;1.70;;;;;;;22.17;30.51;99674.84;7760172;32;37832;-80
2023/06/12 08:31:05;;;;;;;2.83;1.40;;;;;;;22.30;31.93;99673.66;7751871;32;39102;-79
2023/06/12 08:35:21;;;;;;;2.42;1.50;;;;;;;22.74;30.17;99670.88;7766292;32;40929;-80
2023/06/12 08:39:38;;;;;;;3.62;1.67;;;;;;;23.14;33.06;99681.06;7749683;32;37826;-80
2023/06/12 08:43:56;;;;;;;3.50;1.33;;;;;;;23.26;30.33;99671.81;7765134;32;37058;-80
2023/06/12 08:48:18;;;;;;;5.43;1.40;;;;;;;23.54;29.62;99666.13;7751861;32;39560;-79
2023/06/12 08:52:35;;;;;;;2.93;1.77;;;;;;;23.65;31.28;99671.94;7764572;32;41795;-80
2023/06/12 08:56:54;;;;;;;5.65;1.77;;;;;;;23.93;32.05;99677.34;7766019;32;37861;-78
2023/06/12 09:01:12;;;;;;;3.50;1.60;;;;;;;23.92;30.68;99675.75;7764780;32;36216;-78
2023/06/12 09:05:33;;;;;;;2.83;1.52;;;;;;;23.91;28.82;99673.31;7764993;32;38735;-81
2023/06/12 09:09:50;;;;;;;4.97;1.70;;;;;;;23.77;30.37;99682.13;7752363;32;39948;-80
2023/06/12 09:14:08;;;;;;;2.75;1.52;;;;;;;24.29;29.80;99669.72;7766277;32;38594;-80
2023/06/12 09:18:29;;;;;;;4.45;1.60;;;;;;;24.42;31.07;99675.13;7765557;32;37091;-83
2023/06/12 09:22:49;;;;;;;2.58;1.55;;;;;;;24.43;30.34;99673.97;7751870;32;39114;-81
2023/06/12 09:27:14;;;;;;;4.95;1.77;;;;;;;24.43;27.88;99679.56;7751297;32;40008;-81
2023/06/12 09:31:32;;;;;;;3.67;1.92;;;;;;;24.22;29.57;99677.94;7763725;32;38024;-79
2023/06/12 09:35:53;;;;;;;3.22;1.77;;;;;;;24.68;30.52;99663.31;7750906;32;37010;-80
2023/06/12 09:40:13;;;;;;;3.12;1.62;;;;;;;25.03;30.26;99679.88;7749443;32;40325;-78
2023/06/12 09:44:31;;;;;;;4.30;1.80;;;;;;;25.11;28.06;99667.69;7765228;32;39904;-80
2023/06/12 09:48:54;;;;;;;4.87;1.90;;;;;;;24.88;30.39;99673.25;7764422;32;38131;-79
2023/06/12 09:53:21;;;;;;;6.65;1.60;;;;;;;25.61;29.86;99666.84;7765684;32;37026;-79
2023/06/12 09:57:40;;;;;;;3.53;1.60;;;;;;;25.52;28.60;99666.31;7764909;32;40164;-79
2023/06/12 10:02:11;;;;;;;3.70;1.60;;;;;;;25.77;29.98;99658.31;7765244;32;39927;-79
2023/06/12 10:06:30;;;;;;;6.05;1.70;;;;;;;26.05;28.95;99653.13;7764849;32;37934;-79
2023/06/12 10:10:48;;;;;;;3.85;1.73;;;;;;;26.20;28.20;99650.50;7751433;32;37872;-79
2023/06/12 10:15:05;;;;;;;4.95;1.40;;;;;;;26.40;28.18;99653.91;7765412;32;39146;-79
2023/06/12 10:19:26;;;;;;;3.17;1.90;;;;;;;26.35;26.39;99645.88;7765515;32;39703;-78
2023/06/12 10:23:42;;;;;;;5.78;1.67;;;;;;;26.28;28.40;99638.22;7764746;32;37777;-78
2023/06/12 10:28:00;;;;;;;2.55;1.52;;;;;;;26.43;29.03;99641.97;7765455;32;36966;-79
2023/06/12 10:32:17;;;;;;;3.72;1.65;;;;;;;26.52;28.04;99639.66;7764752;32;39301;-80
2023/06/12 10:36:51;;;;;;;3.70;1.65;;;;;;;26.55;28.07;99632.53;7749923;32;40009;-76
2023/06/12 10:41:08;;;;;;;7.78;1.90;;;;;;;26.97;27.94;99631.31;7750781;32;38708;-81
2023/06/12 10:45:29;;;;;;;2.60;1.52;;;;;;;26.80;27.42;99621.59;7764734;32;36840;-81
2023/06/12 10:50:01;;;;;;;2.08;1.30;;;;;;;27.60;27.67;99617.41;7765225;32;39415;-81
2023/06/12 10:54:28;;;;;;;5.50;1.67;;;;;;;27.47;27.01;99611.31;7764265;32;39984;-81
2023/06/12 10:58:44;;;;;;;3.08;1.80;;;;;;;27.84;26.09;99605.53;7751297;32;38138;-82
2023/06/12 11:03:05;;;;;;;5.50;1.55;;;;;;;27.97;26.18;99614.38;7763864;32;37098;-83
2023/06/12 11:07:23;;;;;;;5.57;1.50;;;;;;;28.12;26.29;99597.66;7764649;32;39382;-81
2023/06/12 11:11:51;;;;;;;12.10;1.90;;;;;;;28.33;25.24;99592.09;7764619;32;40987;-80
2023/06/12 11:16:12;;;;;;;3.47;1.50;;;;;;;28.26;26.02;99592.88;7751643;32;38024;-81
2023/06/12 11:20:29;;;;;;;2.83;1.60;;;;;;;28.19;24.94;99583.66;7764500;32;36848;-81
2023/06/12 11:24:48;;;;;;;3.53;1.62;;;;;;;28.89;25.67;99584.16;7762706;32;39438;-83
2023/06/12 11:29:15;;;;;;;2.72;1.40;;;;;;;29.08;22.87;99580.13;7761844;32;39515;-82
2023/06/12 11:33:35;;;;;;;2.62;1.60;;;;;;;29.20;23.01;99581.72;7763748;32;38832;-81
2023/06/12 11:37:52;;;;;;;2.72;1.50;;;;;;;28.98;22.66;99578.94;7763712;32;36946;-83
2023/06/12 11:42:12;;;;;;;3.55;1.37;;;;;;;27.99;23.05;99578.38;7763852;32;38683;-75
2023/06/12 11:46:30;;;;;;;3.03;1.50;;;;;;;28.85;23.63;99577.72;7762936;32;39826;-84
2023/06/12 11:50:48;;;;;;;2.65;1.30;;;;;;;29.16;22.95;99575.31;7764102;32;37970;-82
2023/06/12 11:55:09;;;;;;;1.95;1.30;;;;;;;28.69;21.65;99569.72;7762223;32;37795;-82
2023/06/12 11:59:36;;;;;;;4.03;1.52;;;;;;;29.27;20.94;99561.25;7760386;32;38691;-82
2023/06/12 12:03:58;;;;;;;3.62;1.40;;;;;;;29.22;19.88;99568.09;7760631;32;39288;-79
2023/06/12 12:08:14;;;;;;;2.78;1.33;;;;;;;29.17;21.77;99562.91;7759506;32;37483;-80
2023/06/12 12:12:41;;;;;;;4.75;1.45;;;;;;;29.20;20.27;99560.09;7748788;32;36543;-81
2023/06/12 12:17:04;;;;;;;4.55;1.52;;;;;;;29.07;21.32;99567.28;7762898;32;39611;-80
2023/06/12 12:21:23;;;;;;;5.07;1.52;;;;;;;29.36;20.40;99568.06;7763505;32;39931;-81
2023/06/12 12:25:44;;;;;;;3.75;1.75;;;;;;;30.18;20.91;99559.72;7746462;32;37862;-79
2023/06/12 12:30:03;;;;;;;2.22;1.37;;;;;;;29.61;19.88;99561.56;7760197;32;35683;-78
2023/06/12 12:34:20;;;;;;;4.95;1.42;;;;;;;30.10;18.56;99547.72;7747117;32;39342;-81
2023/06/12 12:38:36;;;;;;;5.03;1.58;;;;;;;30.00;21.70;99548.59;7760438;32;40698;-81
2023/06/12 12:42:54;;;;;;;3.62;1.50;;;;;;;30.19;21.24;99544.44;7759350;32;37906;-81
2023/06/12 12:47:11;;;;;;;4.78;1.25;;;;;;;30.26;18.84;99555.66;7759673;32;37694;-81
2023/06/12 12:51:29;;;;;;;3.28;1.50;;;;;;;30.49;17.92;99546.66;7761022;32;39436;-79
2023/06/12 12:55:46;;;;;;;7.35;1.50;;;;;;;30.52;17.62;99546.63;7760450;32;39378;-80
2023/06/12 13:00:08;;;;;;;4.57;1.60;;;;;;;30.65;21.32;99546.94;7760844;32;37252;-80
2023/06/12 13:04:24;;;;;;;3.45;1.50;;;;;;;30.94;20.64;99531.84;7760186;32;38188;-81
2023/06/12 13:08:41;;;;;;;2.78;1.33;;;;;;;30.67;19.89;99544.50;7759152;32;39011;-80
2023/06/12 13:12:57;;;;;;;6.90;1.58;;;;;;;30.85;21.71;99540.72;7758909;32;40850;-81
2023/06/12 13:17:13;;;;;;;3.80;1.50;;;;;;;31.38;20.63;99536.59;7762946;32;37947;-81
2023/06/12 13:21:30;;;;;;;3.78;1.60;;;;;;;31.17;18.01;99529.19;7749505;32;37785;-82
2023/06/12 13:25:46;;;;;;;2.58;1.35;;;;;;;31.10;17.16;99537.72;7763544;32;40479;-81
2023/06/12 13:30:03;;;;;;;4.18;1.87;;;;;;;30.94;17.69;99521.37;7765197;32;39476;-83
2023/06/12 13:34:20;;;;;;;3.35;1.50;;;;;;;30.65;19.08;99529.25;7752221;32;37800;-83
2023/06/12 13:38:36;;;;;;;2.87;1.50;;;;;;;30.88;19.61;99537.09;7766156;32;37113;-80
2023/06/12 13:42:52;;;;;;;2.40;1.40;;;;;;;30.85;16.83;99524.66;7763551;32;39115;-76
2023/06/12 13:47:09;;;;;;;3.67;1.25;;;;;;;30.67;19.37;99524.81;7747633;32;40614;-80
2023/06/12 13:51:26;;;;;;;2.70;1.55;;;;;;;30.26;19.65;99525.50;7751309;32;38685;-81
2023/06/12 13:55:42;;;;;;;3.62;1.48;;;;;;;29.87;19.36;99518.16;7747804;32;37017;-81
2023/06/12 13:59:59;;;;;;;6.18;1.48;;;;;;;29.43;19.95;99521.53;7747713;32;40099;-81
2023/06/12 14:04:19;;;;;;;2.53;1.50;;;;;;;29.49;20.63;99526.28;7749961;32;39879;-80
2023/06/12 14:08:40;;;;;;;3.80;1.33;;;;;;;30.42;20.51;99522.22;7765052;32;37980;-80
2023/06/12 14:12:57;;;;;;;5.12;1.52;;;;;;;30.80;20.19;99515.88;7765751;32;37127;-82
2023/06/12 14:17:14;;;;;;;1.75;1.40;;;;;;;30.34;18.52;99510.19;7764769;32;39427;-83
2023/06/12 14:21:31;;;;;;;2.37;1.40;;;;;;;30.80;19.25;99527.91;7765399;32;39943;-82
2023/06/12 14:25:47;;;;;;;5.75;2.20;;;;;;;30.73;21.15;99516.72;7764163;32;38758;-81
2023/06/12 14:30:05;;;;;;;7.15;1.62;;;;;;;30.94;18.75;99514.94;7753740;32;363644;-83
2023/06/12 14:34:21;;;;;;;2.97;1.60;;;;;;;31.21;18.35;99521.50;7751327;32;39579;-79
2023/06/12 14:38:38;;;;;;;2.80;1.60;;;;;;;30.86;19.52;99514.22;7764777;32;40741;-82
2023/06/12 14:42:55;;;;;;;2.20;1.35;;;;;;;30.99;17.50;99509.66;7765102;32;37912;-82
2023/06/12 14:47:12;;;;;;;7.28;2.10;;;;;;;30.91;17.66;99505.31;7764702;32;37114;-80
2023/06/12 14:51:28;;;;;;;4.07;1.70;;;;;;;31.15;17.75;99513.91;7765098;32;39108;-81
2023/06/12 14:55:46;;;;;;;2.53;1.58;;;;;;;31.45;19.47;99510.38;7765018;32;40813;-82
2023/06/12 15:00:03;;;;;;;5.20;1.60;;;;;;;31.31;18.00;99508.53;7764327;32;38732;-81
2023/06/12 15:04:19;;;;;;;5.50;1.50;;;;;;;31.16;18.06;99507.88;7764716;32;37943;-80
2023/06/12 15:08:37;;;;;;;3.30;1.40;;;;;;;31.09;17.55;99510.78;7764301;32;39293;-82
2023/06/12 15:12:55;;;;;;;2.45;1.20;;;;;;;31.13;19.27;99510.72;7764695;32;39926;-82
2023/06/12 15:17:25;;;;;;;3.73;1.53;;;;;;;30.67;17.82;99507.94;7764583;32;38664;-83
2023/06/12 15:21:41;;;;;;;3.67;1.60;;;;;;;31.27;18.65;99510.59;7764704;32;37098;-81
2023/06/12 15:25:58;;;;;;;4.28;1.80;;;;;;;31.14;17.87;99506.72;7764514;32;39371;-81
2023/06/12 15:30:16;;;;;;;3.35;1.50;;;;;;;31.15;16.55;99508.28;7763886;32;39929;-83
2023/06/12 15:34:33;;;;;;;4.03;1.50;;;;;;;31.02;16.36;99510.84;7764241;32;37916;-82
2023/06/12 15:38:51;;;;;;;2.35;1.40;;;;;;;30.84;17.17;99505.37;7763015;32;37139;-80
2023/06/12 15:43:07;;;;;;;6.35;1.83;;;;;;;31.24;18.05;99520.66;7764183;32;40208;-82
2023/06/12 15:47:24;;;;;;;4.00;1.40;;;;;;;30.88;17.76;99511.78;7764035;32;40046;-77
2023/06/12 15:51:40;;;;;;;4.90;1.67;;;;;;;30.63;18.24;99507.19;7763429;32;38802;-75
2023/06/12 15:55:57;;;;;;;4.62;1.45;;;;;;;30.34;19.23;99513.00;7762803;32;37838;-80
2023/06/12 16:00:14;;;;;;;3.37;1.75;;;;;;;30.48;18.00;99508.53;7763365;32;40064;-80
2023/06/12 16:04:31;;;;;;;4.25;1.62;;;;;;;30.05;18.02;99506.78;7763575;32;40752;-80
2023/06/12 16:08:48;;;;;;;4.32;1.30;;;;;;;29.91;18.41;99507.69;7763889;32;37815;-80
2023/06/12 16:13:04;;;;;;;2.10;1.60;;;;;;;29.71;18.93;99504.53;7749466;32;37647;-80
2023/06/12 16:17:21;;;;;;;5.20;1.67;;;;;;;29.58;19.20;99517.47;7749777;32;39299;-80
2023/06/12 16:21:37;;;;;;;4.45;1.58;;;;;;;29.49;19.77;99520.69;7763040;32;40010;-80
2023/06/12 16:25:54;;;;;;;4.07;1.65;;;;;;;29.25;20.02;99516.75;7763139;32;38624;-80
2023/06/12 16:30:11;;;;;;;4.75;1.55;;;;;;;29.04;20.87;99528.81;7762616;32;37704;-81
2023/06/12 16:34:28;;;;;;;6.32;1.45;;;;;;;28.92;20.51;99534.84;7762787;32;39298;-80
2023/06/12 16:38:44;;;;;;;5.78;1.55;;;;;;;28.73;20.41;99533.25;7763190;32;40017;-80
2023/06/12 16:43:01;;;;;;;4.18;1.60;;;;;;;28.36;22.00;99540.03;7762402;32;37923;-80
2023/06/12 16:47:17;;;;;;;1.62;1.30;;;;;;;27.97;22.53;99551.97;7762630;32;37831;-80
2023/06/12 16:51:34;;;;;;;3.50;1.40;;;;;;;27.84;23.01;99548.72;7764796;32;40051;-80
2023/06/12 16:55:52;;;;;;;2.85;1.40;;;;;;;27.61;22.59;99554.59;7766415;32;41472;-80
2023/06/12 17:00:13;;;;;;;2.78;1.42;;;;;;;27.37;22.20;99553.28;7766426;32;39133;-80
2023/06/12 17:04:29;;;;;;;5.47;1.20;;;;;;;27.22;23.53;99561.56;7765453;32;37800;-80
2023/06/12 17:08:46;;;;;;;4.15;1.50;;;;;;;26.83;23.56;99559.31;7766314;32;40146;-80
2023/06/12 17:13:04;;;;;;;3.33;1.20;;;;;;;26.54;24.54;99567.41;7765717;32;40856;-80
2023/06/12 17:17:21;;;;;;;2.30;1.23;;;;;;;25.89;25.28;99571.53;7765338;32;37961;-82
2023/06/12 17:21:37;;;;;;;4.45;1.50;;;;;;;25.55;26.33;99577.06;7765224;32;37287;-79
2023/06/12 17:25:55;;;;;;;7.28;2.90;;;;;;;25.35;27.24;99584.75;7764711;32;39878;-80
2023/06/12 17:30:13;;;;;;;5.37;2.95;;;;;;;24.52;28.61;99600.09;7751553;32;40616;-78
2023/06/12 17:34:30;;;;;;;5.12;2.87;;;;;;;24.83;28.52;99592.69;7765209;32;38116;-77
2023/06/12 17:38:48;;;;;;;7.20;1.50;;;;;;;24.36;28.46;99591.88;7765924;32;37055;-82
2023/06/12 17:43:04;;;;;;;3.55;1.60;;;;;;;24.09;29.59;99601.28;7751214;32;38847;-78
2023/06/12 17:47:24;;;;;;;2.55;1.40;;;;;;;24.26;29.46;99598.03;7765339;32;39877;-78
2023/06/12 17:51:41;;;;;;;3.40;1.40;;;;;;;23.72;30.56;99596.94;7765922;32;37908;-78
2023/06/12 17:55:57;;;;;;;2.22;1.20;;;;;;;23.66;29.83;99608.72;7765807;32;38014;-78
2023/06/12 18:00:16;;;;;;;1.73;1.35;;;;;;;23.46;30.43;99611.50;7758428;32;39362;-79
2023/06/12 18:04:32;;;;;;;3.75;1.20;;;;;;;23.15;31.05;99610.38;7737207;32;39790;-79
2023/06/12 18:08:49;;;;;;;4.78;1.40;;;;;;;23.04;31.65;99624.00;7741032;32;38614;-78
2023/06/12 18:13:05;;;;;;;3.67;1.33;;;;;;;22.76;32.19;99623.28;7765659;32;37866;-79
2023/06/12 18:17:21;;;;;;;3.97;1.27;;;;;;;22.80;31.92;99619.44;7765045;32;39465;-79
2023/06/12 18:21:39;;;;;;;3.40;1.20;;;;;;;22.47;33.09;99617.81;7765417;32;39698;-80
2023/06/12 18:25:55;;;;;;;3.17;1.50;;;;;;;22.41;33.65;99624.78;7764955;32;38719;-78
2023/06/12 18:30:12;;;;;;;1.83;1.30;;;;;;;22.05;34.04;99631.28;7765059;32;37802;-77
2023/06/12 18:34:29;;;;;;;3.30;1.30;;;;;;;22.10;34.01;99631.81;7761009;32;39927;-78
2023/06/12 18:38:45;;;;;;;2.58;1.35;;;;;;;21.76;34.33;99628.47;7763989;32;40737;-79
2023/06/12 18:43:02;;;;;;;3.33;1.50;;;;;;;21.74;34.27;99638.31;7763610;32;37997;-78
2023/06/12 18:47:18;;;;;;;1.30;1.20;;;;;;;21.17;34.67;99634.56;7764178;32;37058;-78
2023/06/12 18:51:36;;;;;;;1.67;1.20;;;;;;;21.03;34.86;99645.97;7765025;32;39401;-77
2023/06/12 18:55:53;;;;;;;3.05;1.20;;;;;;;21.13;34.43;99650.28;7762264;32;40744;-78
2023/06/12 19:00:10;;;;;;;3.12;1.45;;;;;;;20.91;34.63;99660.63;7763655;32;38777;-77
2023/06/12 19:04:26;;;;;;;2.20;1.20;;;;;;;20.56;34.95;99666.53;7761824;32;37007;-77
2023/06/12 19:08:42;;;;;;;3.60;1.42;;;;;;;20.67;35.18;99677.22;7763192;32;39176;-78
2023/06/12 19:12:59;;;;;;;1.98;1.33;;;;;;;20.44;36.06;99680.34;7759874;32;40087;-80
2023/06/12 19:17:15;;;;;;;2.75;1.55;;;;;;;20.42;35.71;99688.16;7758275;32;38024;-78
2023/06/12 19:21:32;;;;;;;7.65;1.45;;;;;;;20.33;35.92;99695.75;7744405;32;37775;-78
2023/06/12 19:25:48;;;;;;;2.17;1.50;;;;;;;20.45;34.95;99701.34;7762262;32;39643;-79
2023/06/12 19:30:06;;;;;;;2.42;1.25;;;;;;;19.81;36.76;99713.56;7756583;32;40813;-78
2023/06/12 19:34:23;;;;;;;2.30;1.50;;;;;;;19.96;35.45;99706.66;7760873;32;37898;-80
2023/06/12 19:38:39;;;;;;;2.03;1.42;;;;;;;19.90;36.33;99700.47;7762500;32;37695;-80
2023/06/12 19:42:56;;;;;;;2.90;1.40;;;;;;;19.92;35.87;99713.97;7759841;32;39354;-78
2023/06/12 19:47:12;;;;;;;2.70;1.50;;;;;;;19.90;35.88;99717.09;7745956;32;40717;-79
2023/06/12 19:51:29;;;;;;;3.12;1.50;;;;;;;19.81;35.68;99725.44;7757859;32;37835;-79
2023/06/12 19:55:45;;;;;;;9.10;1.90;;;;;;;19.93;36.19;99729.44;7760287;32;38181;-78
2023/06/12 20:00:06;;;;;;;5.03;1.92;;;;;;;19.70;36.78;99722.22;7747521;32;39243;-80
2023/06/12 20:04:23;;;;;;;3.08;1.70;;;;;;;19.74;37.61;99727.94;7759652;32;39402;-79
2023/06/12 20:08:40;;;;;;;4.80;2.33;;;;;;;19.55;37.88;99733.06;7760915;32;38676;-79
2023/06/12 20:12:58;;;;;;;3.20;1.77;;;;;;;19.36;38.37;99727.97;7758411;32;35667;-79